sensor_id;sensor_type;location;lat;lon;timestamp;P1;durP1;ratioP1;P2;durP2;ratioP2
59062;SDS011;44851;45.648;9.004;2023-05-17T00:02:19;10.23;;;9.23;;
59062;SDS011;44851;45.648;9.004;2023-05-17T00:04:44;9.77;;;8.77;;
59062;SDS011;44851;45.648;9.004;2023-05-17T00:07:10;10.57;;;9.03;;
59062;SDS011;44851;45.648;9.004;2023-05-17T00:09:35;9.37;;;8.47;;
59062;SDS011;44851;45.648;9.004;2023-05-17T00:12:01;10.23;;;8.70;;
59062;SDS011;44851;45.648;9.004;2023-05-17T00:14:26;9.63;;;8.83;;
59062;SDS011;44851;45.648;9.004;2023-05-17T00:16:52;10.37;;;9.47;;
59062;SDS011;44851;45.648;9.004;2023-05-17T00:19:17;10.90;;;9.90;;
59062;SDS011;44851;45.648;9.004;2023-05-17T00:21:42;10.73;;;9.73;;
59062;SDS011;44851;45.648;9.004;2023-05-17T00:24:08;10.47;;;9.43;;
59062;SDS011;44851;45.648;9.004;2023-05-17T00:26:33;10.80;;;9.73;;
59062;SDS011;44851;45.648;9.004;2023-05-17T00:28:59;10.33;;;9.43;;
59062;SDS011;44851;45.648;9.004;2023-05-17T00:31:24;10.43;;;9.33;;
59062;SDS011;44851;45.648;9.004;2023-05-17T00:33:50;11.10;;;10.10;;
59062;SDS011;44851;45.648;9.004;2023-05-17T00:36:15;10.43;;;9.43;;
59062;SDS011;44851;45.648;9.004;2023-05-17T00:38:40;10.20;;;9.30;;
59062;SDS011;44851;45.648;9.004;2023-05-17T00:41:06;10.97;;;9.83;;
59062;SDS011;44851;45.648;9.004;2023-05-17T00:43:31;9.70;;;8.80;;
59062;SDS011;44851;45.648;9.004;2023-05-17T00:45:56;10.67;;;9.40;;
59062;SDS011;44851;45.648;9.004;2023-05-17T00:48:22;11.30;;;10.17;;
59062;SDS011;44851;45.648;9.004;2023-05-17T00:50:50;11.10;;;9.87;;
59062;SDS011;44851;45.648;9.004;2023-05-17T00:53:17;10.10;;;9.20;;
59062;SDS011;44851;45.648;9.004;2023-05-17T00:55:43;11.03;;;9.97;;
59062;SDS011;44851;45.648;9.004;2023-05-17T00:58:10;10.70;;;9.70;;
59062;SDS011;44851;45.648;9.004;2023-05-17T01:00:36;9.97;;;9.07;;
59062;SDS011;44851;45.648;9.004;2023-05-17T01:03:01;10.40;;;9.40;;
59062;SDS011;44851;45.648;9.004;2023-05-17T01:05:27;11.07;;;9.00;;
59062;SDS011;44851;45.648;9.004;2023-05-17T01:07:53;9.90;;;9.00;;
59062;SDS011;44851;45.648;9.004;2023-05-17T01:10:19;9.80;;;8.80;;
59062;SDS011;44851;45.648;9.004;2023-05-17T01:12:58;11.00;;;9.90;;
59062;SDS011;44851;45.648;9.004;2023-05-17T01:15:33;10.33;;;9.33;;
59062;SDS011;44851;45.648;9.004;2023-05-17T01:20:41;10.90;;;9.87;;
59062;SDS011;44851;45.648;9.004;2023-05-17T01:26:19;11.07;;;9.17;;
59062;SDS011;44851;45.648;9.004;2023-05-17T01:28:58;10.50;;;9.50;;
59062;SDS011;44851;45.648;9.004;2023-05-17T01:31:24;11.10;;;9.90;;
59062;SDS011;44851;45.648;9.004;2023-05-17T01:33:50;10.50;;;9.40;;
59062;SDS011;44851;45.648;9.004;2023-05-17T01:36:15;10.63;;;9.53;;
59062;SDS011;44851;45.648;9.004;2023-05-17T01:38:41;10.77;;;9.70;;
59062;SDS011;44851;45.648;9.004;2023-05-17T01:41:11;10.50;;;9.40;;
59062;SDS011;44851;45.648;9.004;2023-05-17T01:43:40;10.43;;;9.43;;
59062;SDS011;44851;45.648;9.004;2023-05-17T01:48:49;9.93;;;8.97;;
59062;SDS011;44851;45.648;9.004;2023-05-17T01:51:38;10.07;;;9.00;;
59062;SDS011;44851;45.648;9.004;2023-05-17T01:54:11;10.87;;;9.77;;
59062;SDS011;44851;45.648;9.004;2023-05-17T01:56:42;13.10;;;10.43;;
59062;SDS011;44851;45.648;9.004;2023-05-17T01:59:11;11.93;;;10.73;;
59062;SDS011;44851;45.648;9.004;2023-05-17T02:01:43;11.10;;;10.00;;
59062;SDS011;44851;45.648;9.004;2023-05-17T02:04:10;11.60;;;10.50;;
59062;SDS011;44851;45.648;9.004;2023-05-17T02:06:35;11.40;;;10.20;;
59062;SDS011;44851;45.648;9.004;2023-05-17T02:09:00;11.37;;;10.30;;
59062;SDS011;44851;45.648;9.004;2023-05-17T02:11:27;11.80;;;9.73;;
59062;SDS011;44851;45.648;9.004;2023-05-17T02:13:52;11.53;;;10.40;;
59062;SDS011;44851;45.648;9.004;2023-05-17T02:16:17;13.17;;;10.83;;
59062;SDS011;44851;45.648;9.004;2023-05-17T02:18:43;12.27;;;10.37;;
59062;SDS011;44851;45.648;9.004;2023-05-17T02:21:08;11.57;;;10.07;;
59062;SDS011;44851;45.648;9.004;2023-05-17T02:23:34;12.40;;;10.50;;
59062;SDS011;44851;45.648;9.004;2023-05-17T02:25:59;11.90;;;10.00;;
59062;SDS011;44851;45.648;9.004;2023-05-17T02:28:25;11.63;;;10.53;;
59062;SDS011;44851;45.648;9.004;2023-05-17T02:30:51;11.37;;;10.20;;
59062;SDS011;44851;45.648;9.004;2023-05-17T02:33:17;11.97;;;10.43;;
59062;SDS011;44851;45.648;9.004;2023-05-17T02:35:42;12.00;;;10.90;;
59062;SDS011;44851;45.648;9.004;2023-05-17T02:38:07;11.53;;;10.43;;
59062;SDS011;44851;45.648;9.004;2023-05-17T02:40:33;11.13;;;10.03;;
59062;SDS011;44851;45.648;9.004;2023-05-17T02:42:58;11.00;;;9.77;;
59062;SDS011;44851;45.648;9.004;2023-05-17T02:45:23;11.20;;;10.10;;
59062;SDS011;44851;45.648;9.004;2023-05-17T02:47:49;12.63;;;11.33;;
59062;SDS011;44851;45.648;9.004;2023-05-17T02:50:14;11.63;;;10.40;;
59062;SDS011;44851;45.648;9.004;2023-05-17T02:52:39;12.40;;;11.20;;
59062;SDS011;44851;45.648;9.004;2023-05-17T02:55:05;11.93;;;10.73;;
59062;SDS011;44851;45.648;9.004;2023-05-17T02:57:31;11.53;;;10.33;;
59062;SDS011;44851;45.648;9.004;2023-05-17T02:59:56;12.23;;;11.13;;
59062;SDS011;44851;45.648;9.004;2023-05-17T03:02:21;11.10;;;10.00;;
59062;SDS011;44851;45.648;9.004;2023-05-17T03:04:47;13.00;;;11.53;;
59062;SDS011;44851;45.648;9.004;2023-05-17T03:07:12;12.00;;;10.70;;
59062;SDS011;44851;45.648;9.004;2023-05-17T03:09:37;12.97;;;10.90;;
59062;SDS011;44851;45.648;9.004;2023-05-17T03:12:03;12.40;;;11.13;;
59062;SDS011;44851;45.648;9.004;2023-05-17T03:14:28;12.47;;;11.20;;
59062;SDS011;44851;45.648;9.004;2023-05-17T03:16:54;11.97;;;10.70;;
59062;SDS011;44851;45.648;9.004;2023-05-17T03:19:19;13.30;;;11.90;;
59062;SDS011;44851;45.648;9.004;2023-05-17T03:21:45;13.13;;;11.83;;
59062;SDS011;44851;45.648;9.004;2023-05-17T03:24:10;13.13;;;11.73;;
59062;SDS011;44851;45.648;9.004;2023-05-17T03:26:35;12.70;;;11.50;;
59062;SDS011;44851;45.648;9.004;2023-05-17T03:29:01;12.80;;;11.40;;
59062;SDS011;44851;45.648;9.004;2023-05-17T03:31:26;12.30;;;10.97;;
59062;SDS011;44851;45.648;9.004;2023-05-17T03:33:51;13.40;;;11.67;;
59062;SDS011;44851;45.648;9.004;2023-05-17T03:36:17;16.33;;;11.23;;
59062;SDS011;44851;45.648;9.004;2023-05-17T03:38:42;14.83;;;12.17;;
59062;SDS011;44851;45.648;9.004;2023-05-17T03:41:08;13.60;;;11.23;;
59062;SDS011;44851;45.648;9.004;2023-05-17T03:43:33;13.00;;;11.03;;
59062;SDS011;44851;45.648;9.004;2023-05-17T03:45:58;14.77;;;11.73;;
59062;SDS011;44851;45.648;9.004;2023-05-17T03:48:24;13.67;;;12.20;;
59062;SDS011;44851;45.648;9.004;2023-05-17T03:50:49;13.10;;;11.70;;
59062;SDS011;44851;45.648;9.004;2023-05-17T03:53:15;13.30;;;11.90;;
59062;SDS011;44851;45.648;9.004;2023-05-17T03:55:40;12.80;;;11.50;;
59062;SDS011;44851;45.648;9.004;2023-05-17T03:58:05;15.97;;;11.30;;
59062;SDS011;44851;45.648;9.004;2023-05-17T04:00:31;14.13;;;12.47;;
59062;SDS011;44851;45.648;9.004;2023-05-17T04:02:56;13.93;;;12.47;;
59062;SDS011;44851;45.648;9.004;2023-05-17T04:05:21;13.67;;;12.27;;
59062;SDS011;44851;45.648;9.004;2023-05-17T04:07:47;13.50;;;12.03;;
59062;SDS011;44851;45.648;9.004;2023-05-17T04:10:12;14.03;;;11.80;;
59062;SDS011;44851;45.648;9.004;2023-05-17T04:12:38;13.90;;;12.47;;
59062;SDS011;44851;45.648;9.004;2023-05-17T04:15:03;13.83;;;12.50;;
59062;SDS011;44851;45.648;9.004;2023-05-17T04:17:29;12.40;;;11.17;;
59062;SDS011;44851;45.648;9.004;2023-05-17T04:19:54;12.53;;;11.33;;
59062;SDS011;44851;45.648;9.004;2023-05-17T04:22:20;13.37;;;12.00;;
59062;SDS011;44851;45.648;9.004;2023-05-17T04:24:45;13.50;;;12.10;;
59062;SDS011;44851;45.648;9.004;2023-05-17T04:27:11;13.80;;;12.30;;
59062;SDS011;44851;45.648;9.004;2023-05-17T04:29:36;13.00;;;11.40;;
59062;SDS011;44851;45.648;9.004;2023-05-17T04:32:02;13.27;;;11.90;;
59062;SDS011;44851;45.648;9.004;2023-05-17T04:34:27;14.53;;;11.63;;
59062;SDS011;44851;45.648;9.004;2023-05-17T04:36:53;13.07;;;11.77;;
59062;SDS011;44851;45.648;9.004;2023-05-17T04:39:19;14.23;;;12.43;;
59062;SDS011;44851;45.648;9.004;2023-05-17T04:41:44;13.87;;;12.37;;
59062;SDS011;44851;45.648;9.004;2023-05-17T04:44:10;13.87;;;12.37;;
59062;SDS011;44851;45.648;9.004;2023-05-17T04:46:35;14.83;;;13.07;;
59062;SDS011;44851;45.648;9.004;2023-05-17T04:49:01;15.30;;;13.70;;
59062;SDS011;44851;45.648;9.004;2023-05-17T04:51:27;14.67;;;12.37;;
59062;SDS011;44851;45.648;9.004;2023-05-17T04:53:53;14.27;;;12.53;;
59062;SDS011;44851;45.648;9.004;2023-05-17T04:56:19;14.60;;;13.10;;
59062;SDS011;44851;45.648;9.004;2023-05-17T04:58:44;14.87;;;13.30;;
59062;SDS011;44851;45.648;9.004;2023-05-17T05:01:09;14.03;;;12.53;;
59062;SDS011;44851;45.648;9.004;2023-05-17T05:03:36;15.07;;;13.03;;
59062;SDS011;44851;45.648;9.004;2023-05-17T05:06:01;16.50;;;12.87;;
59062;SDS011;44851;45.648;9.004;2023-05-17T05:08:28;15.67;;;13.33;;
59062;SDS011;44851;45.648;9.004;2023-05-17T05:10:53;14.13;;;11.80;;
59062;SDS011;44851;45.648;9.004;2023-05-17T05:13:19;13.93;;;12.53;;
59062;SDS011;44851;45.648;9.004;2023-05-17T05:15:44;16.37;;;13.57;;
59062;SDS011;44851;45.648;9.004;2023-05-17T05:18:09;16.17;;;13.00;;
59062;SDS011;44851;45.648;9.004;2023-05-17T05:20:35;16.67;;;14.50;;
59062;SDS011;44851;45.648;9.004;2023-05-17T05:23:00;16.23;;;14.50;;
59062;SDS011;44851;45.648;9.004;2023-05-17T05:25:27;18.13;;;13.83;;
59062;SDS011;44851;45.648;9.004;2023-05-17T05:27:53;15.77;;;14.07;;
59062;SDS011;44851;45.648;9.004;2023-05-17T05:30:19;17.90;;;14.63;;
59062;SDS011;44851;45.648;9.004;2023-05-17T05:32:48;17.23;;;15.43;;
59062;SDS011;44851;45.648;9.004;2023-05-17T05:35:13;17.70;;;15.57;;
59062;SDS011;44851;45.648;9.004;2023-05-17T05:37:40;16.90;;;15.20;;
59062;SDS011;44851;45.648;9.004;2023-05-17T05:40:06;17.30;;;15.07;;
59062;SDS011;44851;45.648;9.004;2023-05-17T05:42:32;18.03;;;15.60;;
59062;SDS011;44851;45.648;9.004;2023-05-17T05:44:58;17.10;;;15.30;;
59062;SDS011;44851;45.648;9.004;2023-05-17T05:47:23;19.17;;;16.73;;
59062;SDS011;44851;45.648;9.004;2023-05-17T05:49:49;18.20;;;16.37;;
59062;SDS011;44851;45.648;9.004;2023-05-17T05:52:14;20.33;;;17.53;;
59062;SDS011;44851;45.648;9.004;2023-05-17T05:54:40;22.63;;;20.20;;
59062;SDS011;44851;45.648;9.004;2023-05-17T05:57:05;19.83;;;17.83;;
59062;SDS011;44851;45.648;9.004;2023-05-17T05:59:30;20.03;;;17.93;;
59062;SDS011;44851;45.648;9.004;2023-05-17T06:01:56;21.63;;;19.47;;
59062;SDS011;44851;45.648;9.004;2023-05-17T06:04:21;22.57;;;18.70;;
59062;SDS011;44851;45.648;9.004;2023-05-17T06:06:46;20.23;;;18.03;;
59062;SDS011;44851;45.648;9.004;2023-05-17T06:09:12;20.73;;;18.67;;
59062;SDS011;44851;45.648;9.004;2023-05-17T06:11:37;19.30;;;17.30;;
59062;SDS011;44851;45.648;9.004;2023-05-17T06:14:03;84.63;;;24.57;;
59062;SDS011;44851;45.648;9.004;2023-05-17T06:16:29;38.77;;;20.37;;
59062;SDS011;44851;45.648;9.004;2023-05-17T06:18:54;164.20;;;108.73;;
59062;SDS011;44851;45.648;9.004;2023-05-17T06:21:20;144.90;;;114.30;;
59062;SDS011;44851;45.648;9.004;2023-05-17T06:23:45;70.63;;;48.27;;
59062;SDS011;44851;45.648;9.004;2023-05-17T06:26:10;43.47;;;31.00;;
59062;SDS011;44851;45.648;9.004;2023-05-17T06:28:36;44.87;;;31.30;;
59062;SDS011;44851;45.648;9.004;2023-05-17T06:31:02;34.83;;;23.70;;
59062;SDS011;44851;45.648;9.004;2023-05-17T06:33:27;173.13;;;48.20;;
59062;SDS011;44851;45.648;9.004;2023-05-17T06:35:53;85.83;;;35.50;;
59062;SDS011;44851;45.648;9.004;2023-05-17T06:38:19;33.50;;;23.10;;
59062;SDS011;44851;45.648;9.004;2023-05-17T06:40:44;25.20;;;19.23;;
59062;SDS011;44851;45.648;9.004;2023-05-17T06:43:10;20.83;;;18.37;;
59062;SDS011;44851;45.648;9.004;2023-05-17T06:45:35;25.27;;;21.10;;
59062;SDS011;44851;45.648;9.004;2023-05-17T06:48:00;42.17;;;31.53;;
59062;SDS011;44851;45.648;9.004;2023-05-17T06:50:26;47.03;;;27.07;;
59062;SDS011;44851;45.648;9.004;2023-05-17T06:52:52;46.27;;;25.07;;
59062;SDS011;44851;45.648;9.004;2023-05-17T06:55:17;39.13;;;21.47;;
59062;SDS011;44851;45.648;9.004;2023-05-17T06:57:43;22.60;;;17.63;;
59062;SDS011;44851;45.648;9.004;2023-05-17T07:00:08;18.40;;;16.17;;
59062;SDS011;44851;45.648;9.004;2023-05-17T07:02:35;17.90;;;16.03;;
59062;SDS011;44851;45.648;9.004;2023-05-17T07:05:01;18.03;;;14.57;;
59062;SDS011;44851;45.648;9.004;2023-05-17T07:07:27;17.70;;;15.80;;
59062;SDS011;44851;45.648;9.004;2023-05-17T07:09:52;17.73;;;15.47;;
59062;SDS011;44851;45.648;9.004;2023-05-17T07:12:18;18.50;;;15.07;;
59062;SDS011;44851;45.648;9.004;2023-05-17T07:14:43;19.67;;;15.43;;
59062;SDS011;44851;45.648;9.004;2023-05-17T07:17:09;19.23;;;15.40;;
59062;SDS011;44851;45.648;9.004;2023-05-17T07:19:35;18.30;;;15.10;;
59062;SDS011;44851;45.648;9.004;2023-05-17T07:22:01;15.73;;;13.43;;
59062;SDS011;44851;45.648;9.004;2023-05-17T07:24:26;16.87;;;14.97;;
59062;SDS011;44851;45.648;9.004;2023-05-17T07:26:52;15.53;;;13.93;;
59062;SDS011;44851;45.648;9.004;2023-05-17T07:29:17;16.00;;;14.33;;
59062;SDS011;44851;45.648;9.004;2023-05-17T07:31:42;15.80;;;14.20;;
59062;SDS011;44851;45.648;9.004;2023-05-17T07:34:08;14.80;;;13.30;;
59062;SDS011;44851;45.648;9.004;2023-05-17T07:36:33;15.27;;;13.30;;
59062;SDS011;44851;45.648;9.004;2023-05-17T07:38:59;14.20;;;12.73;;
59062;SDS011;44851;45.648;9.004;2023-05-17T07:41:24;16.47;;;12.60;;
59062;SDS011;44851;45.648;9.004;2023-05-17T07:43:51;13.30;;;11.97;;
59062;SDS011;44851;45.648;9.004;2023-05-17T07:46:16;13.83;;;11.77;;
59062;SDS011;44851;45.648;9.004;2023-05-17T07:48:42;10.67;;;9.50;;
59062;SDS011;44851;45.648;9.004;2023-05-17T07:51:07;13.20;;;11.90;;
59062;SDS011;44851;45.648;9.004;2023-05-17T07:53:33;11.40;;;10.30;;
59062;SDS011;44851;45.648;9.004;2023-05-17T07:55:58;13.87;;;12.10;;
59062;SDS011;44851;45.648;9.004;2023-05-17T07:58:23;12.77;;;10.77;;
59062;SDS011;44851;45.648;9.004;2023-05-17T08:00:49;9.60;;;8.60;;
59062;SDS011;44851;45.648;9.004;2023-05-17T08:03:14;9.77;;;8.87;;
59062;SDS011;44851;45.648;9.004;2023-05-17T08:05:40;7.63;;;6.40;;
59062;SDS011;44851;45.648;9.004;2023-05-17T08:08:05;7.70;;;6.53;;
59062;SDS011;44851;45.648;9.004;2023-05-17T08:10:32;8.17;;;6.10;;
59062;SDS011;44851;45.648;9.004;2023-05-17T08:13:01;7.43;;;5.50;;
59062;SDS011;44851;45.648;9.004;2023-05-17T08:15:28;6.43;;;5.57;;
59062;SDS011;44851;45.648;9.004;2023-05-17T08:17:53;9.30;;;7.23;;
59062;SDS011;44851;45.648;9.004;2023-05-17T08:20:18;6.80;;;6.07;;
59062;SDS011;44851;45.648;9.004;2023-05-17T08:22:44;7.37;;;6.20;;
59062;SDS011;44851;45.648;9.004;2023-05-17T08:25:09;9.03;;;6.83;;
59062;SDS011;44851;45.648;9.004;2023-05-17T08:27:34;7.67;;;6.37;;
59062;SDS011;44851;45.648;9.004;2023-05-17T08:30:00;9.17;;;6.60;;
59062;SDS011;44851;45.648;9.004;2023-05-17T08:32:26;6.40;;;5.80;;
59062;SDS011;44851;45.648;9.004;2023-05-17T08:34:52;7.67;;;6.97;;
59062;SDS011;44851;45.648;9.004;2023-05-17T08:37:17;8.10;;;6.40;;
59062;SDS011;44851;45.648;9.004;2023-05-17T08:39:43;6.10;;;5.37;;
59062;SDS011;44851;45.648;9.004;2023-05-17T08:42:08;7.40;;;5.77;;
59062;SDS011;44851;45.648;9.004;2023-05-17T08:44:34;6.70;;;5.43;;
59062;SDS011;44851;45.648;9.004;2023-05-17T08:47:01;6.23;;;5.63;;
59062;SDS011;44851;45.648;9.004;2023-05-17T08:49:27;6.17;;;5.47;;
59062;SDS011;44851;45.648;9.004;2023-05-17T08:51:58;6.23;;;5.57;;
59062;SDS011;44851;45.648;9.004;2023-05-17T08:54:25;7.30;;;4.90;;
59062;SDS011;44851;45.648;9.004;2023-05-17T08:56:51;5.57;;;4.90;;
59062;SDS011;44851;45.648;9.004;2023-05-17T08:59:21;7.23;;;4.60;;
59062;SDS011;44851;45.648;9.004;2023-05-17T09:01:47;6.20;;;4.50;;
59062;SDS011;44851;45.648;9.004;2023-05-17T09:04:15;5.33;;;4.87;;
59062;SDS011;44851;45.648;9.004;2023-05-17T09:06:41;9.13;;;6.30;;
59062;SDS011;44851;45.648;9.004;2023-05-17T09:09:08;5.23;;;4.73;;
59062;SDS011;44851;45.648;9.004;2023-05-17T09:11:34;9.33;;;5.37;;
59062;SDS011;44851;45.648;9.004;2023-05-17T09:14:00;7.53;;;4.70;;
59062;SDS011;44851;45.648;9.004;2023-05-17T09:16:31;4.53;;;3.93;;
59062;SDS011;44851;45.648;9.004;2023-05-17T09:18:59;9.57;;;6.80;;
59062;SDS011;44851;45.648;9.004;2023-05-17T09:21:25;7.17;;;4.60;;
59062;SDS011;44851;45.648;9.004;2023-05-17T09:23:51;6.70;;;4.67;;
59062;SDS011;44851;45.648;9.004;2023-05-17T09:26:18;4.37;;;3.90;;
59062;SDS011;44851;45.648;9.004;2023-05-17T09:28:44;4.60;;;4.20;;
59062;SDS011;44851;45.648;9.004;2023-05-17T09:31:12;5.07;;;4.57;;
59062;SDS011;44851;45.648;9.004;2023-05-17T09:33:43;4.53;;;4.13;;
59062;SDS011;44851;45.648;9.004;2023-05-17T09:38:43;2.97;;;2.70;;
59062;SDS011;44851;45.648;9.004;2023-05-17T09:41:16;3.63;;;3.33;;
59062;SDS011;44851;45.648;9.004;2023-05-17T09:43:42;5.90;;;4.33;;
59062;SDS011;44851;45.648;9.004;2023-05-17T09:46:07;5.43;;;3.90;;
59062;SDS011;44851;45.648;9.004;2023-05-17T09:48:32;46.67;;;37.30;;
59062;SDS011;44851;45.648;9.004;2023-05-17T09:51:02;7.90;;;7.10;;
59062;SDS011;44851;45.648;9.004;2023-05-17T09:53:28;4.63;;;3.83;;
59062;SDS011;44851;45.648;9.004;2023-05-17T09:55:58;3.80;;;3.40;;
59062;SDS011;44851;45.648;9.004;2023-05-17T09:58:25;4.47;;;2.73;;
59062;SDS011;44851;45.648;9.004;2023-05-17T10:00:53;2.87;;;2.50;;
59062;SDS011;44851;45.648;9.004;2023-05-17T10:03:23;8.00;;;7.20;;
59062;SDS011;44851;45.648;9.004;2023-05-17T10:05:53;3.43;;;3.10;;
59062;SDS011;44851;45.648;9.004;2023-05-17T10:08:22;3.20;;;2.90;;
59062;SDS011;44851;45.648;9.004;2023-05-17T10:10:49;4.00;;;2.80;;
59062;SDS011;44851;45.648;9.004;2023-05-17T10:13:19;4.40;;;4.00;;
59062;SDS011;44851;45.648;9.004;2023-05-17T10:15:48;3.97;;;3.63;;
59062;SDS011;44851;45.648;9.004;2023-05-17T10:18:15;3.93;;;3.63;;
59062;SDS011;44851;45.648;9.004;2023-05-17T10:20:42;3.83;;;3.37;;
59062;SDS011;44851;45.648;9.004;2023-05-17T10:23:08;3.73;;;3.37;;
59062;SDS011;44851;45.648;9.004;2023-05-17T10:25:36;3.60;;;3.30;;
59062;SDS011;44851;45.648;9.004;2023-05-17T10:28:01;4.60;;;3.57;;
59062;SDS011;44851;45.648;9.004;2023-05-17T10:30:30;4.97;;;4.57;;
59062;SDS011;44851;45.648;9.004;2023-05-17T10:32:58;5.07;;;4.67;;
59062;SDS011;44851;45.648;9.004;2023-05-17T10:35:24;4.97;;;4.57;;
59062;SDS011;44851;45.648;9.004;2023-05-17T10:37:51;4.87;;;4.43;;
59062;SDS011;44851;45.648;9.004;2023-05-17T10:40:17;4.63;;;4.23;;
59062;SDS011;44851;45.648;9.004;2023-05-17T10:42:49;5.00;;;4.60;;
59062;SDS011;44851;45.648;9.004;2023-05-17T10:45:20;5.30;;;4.80;;
59062;SDS011;44851;45.648;9.004;2023-05-17T10:47:49;7.17;;;5.50;;
59062;SDS011;44851;45.648;9.004;2023-05-17T10:50:20;5.57;;;5.07;;
59062;SDS011;44851;45.648;9.004;2023-05-17T10:52:47;5.90;;;5.40;;
59062;SDS011;44851;45.648;9.004;2023-05-17T10:55:20;6.00;;;5.47;;
59062;SDS011;44851;45.648;9.004;2023-05-17T10:58:15;5.60;;;5.10;;
59062;SDS011;44851;45.648;9.004;2023-05-17T11:00:44;6.30;;;5.70;;
59062;SDS011;44851;45.648;9.004;2023-05-17T11:03:15;6.10;;;5.50;;
59062;SDS011;44851;45.648;9.004;2023-05-17T11:05:43;6.73;;;5.50;;
59062;SDS011;44851;45.648;9.004;2023-05-17T11:08:28;6.40;;;5.80;;
59062;SDS011;44851;45.648;9.004;2023-05-17T11:11:06;5.43;;;4.93;;
59062;SDS011;44851;45.648;9.004;2023-05-17T11:13:54;5.87;;;5.37;;
59062;SDS011;44851;45.648;9.004;2023-05-17T11:16:21;5.87;;;5.17;;
59062;SDS011;44851;45.648;9.004;2023-05-17T11:18:50;5.77;;;5.27;;
59062;SDS011;44851;45.648;9.004;2023-05-17T11:21:17;5.80;;;5.30;;
59062;SDS011;44851;45.648;9.004;2023-05-17T11:23:43;5.00;;;4.60;;
59062;SDS011;44851;45.648;9.004;2023-05-17T11:26:24;4.80;;;4.30;;
59062;SDS011;44851;45.648;9.004;2023-05-17T11:29:00;5.07;;;4.57;;
59062;SDS011;44851;45.648;9.004;2023-05-17T11:31:29;5.43;;;4.93;;
59062;SDS011;44851;45.648;9.004;2023-05-17T11:33:56;4.60;;;4.20;;
59062;SDS011;44851;45.648;9.004;2023-05-17T11:36:22;4.67;;;4.27;;
59062;SDS011;44851;45.648;9.004;2023-05-17T11:38:48;4.70;;;4.30;;
59062;SDS011;44851;45.648;9.004;2023-05-17T11:41:19;5.40;;;4.90;;
59062;SDS011;44851;45.648;9.004;2023-05-17T11:43:46;5.13;;;4.63;;
59062;SDS011;44851;45.648;9.004;2023-05-17T11:46:19;6.47;;;4.90;;
59062;SDS011;44851;45.648;9.004;2023-05-17T11:48:46;5.20;;;4.23;;
59062;SDS011;44851;45.648;9.004;2023-05-17T11:51:14;4.77;;;4.30;;
59062;SDS011;44851;45.648;9.004;2023-05-17T11:53:43;6.97;;;4.77;;
59062;SDS011;44851;45.648;9.004;2023-05-17T11:56:11;5.10;;;4.70;;
59062;SDS011;44851;45.648;9.004;2023-05-17T11:58:37;5.37;;;4.60;;
59062;SDS011;44851;45.648;9.004;2023-05-17T12:01:02;7.20;;;4.60;;
59062;SDS011;44851;45.648;9.004;2023-05-17T12:03:30;4.67;;;4.27;;
59062;SDS011;44851;45.648;9.004;2023-05-17T12:06:07;6.07;;;5.47;;
59062;SDS011;44851;45.648;9.004;2023-05-17T12:08:35;6.17;;;4.90;;
59062;SDS011;44851;45.648;9.004;2023-05-17T12:11:03;6.17;;;4.90;;
59062;SDS011;44851;45.648;9.004;2023-05-17T12:13:30;5.60;;;5.03;;
59062;SDS011;44851;45.648;9.004;2023-05-17T12:15:58;5.77;;;5.27;;
59062;SDS011;44851;45.648;9.004;2023-05-17T12:18:40;7.07;;;5.53;;
59062;SDS011;44851;45.648;9.004;2023-05-17T12:21:06;5.80;;;5.30;;
59062;SDS011;44851;45.648;9.004;2023-05-17T12:23:35;5.93;;;5.33;;
59062;SDS011;44851;45.648;9.004;2023-05-17T12:26:06;6.13;;;5.53;;
59062;SDS011;44851;45.648;9.004;2023-05-17T12:28:33;5.43;;;4.93;;
59062;SDS011;44851;45.648;9.004;2023-05-17T12:31:00;4.60;;;4.20;;
59062;SDS011;44851;45.648;9.004;2023-05-17T12:33:30;5.27;;;4.70;;
59062;SDS011;44851;45.648;9.004;2023-05-17T12:35:58;7.00;;;4.87;;
59062;SDS011;44851;45.648;9.004;2023-05-17T12:38:25;5.20;;;4.53;;
59062;SDS011;44851;45.648;9.004;2023-05-17T12:40:56;5.43;;;4.93;;
59062;SDS011;44851;45.648;9.004;2023-05-17T12:43:23;7.03;;;4.40;;
59062;SDS011;44851;45.648;9.004;2023-05-17T12:45:49;5.17;;;4.67;;
59062;SDS011;44851;45.648;9.004;2023-05-17T12:48:16;5.37;;;4.27;;
59062;SDS011;44851;45.648;9.004;2023-05-17T12:50:42;3.67;;;3.37;;
59062;SDS011;44851;45.648;9.004;2023-05-17T12:53:12;3.80;;;3.37;;
59062;SDS011;44851;45.648;9.004;2023-05-17T12:55:38;3.83;;;3.30;;
59062;SDS011;44851;45.648;9.004;2023-05-17T12:58:03;3.70;;;3.40;;
59062;SDS011;44851;45.648;9.004;2023-05-17T13:00:29;4.07;;;3.67;;
59062;SDS011;44851;45.648;9.004;2023-05-17T13:02:55;3.40;;;3.00;;
59062;SDS011;44851;45.648;9.004;2023-05-17T13:05:20;3.77;;;3.47;;
59062;SDS011;44851;45.648;9.004;2023-05-17T13:07:46;3.60;;;3.20;;
59062;SDS011;44851;45.648;9.004;2023-05-17T13:10:22;3.50;;;3.20;;
59062;SDS011;44851;45.648;9.004;2023-05-17T13:12:59;3.80;;;3.50;;
59062;SDS011;44851;45.648;9.004;2023-05-17T13:15:28;6.27;;;4.13;;
59062;SDS011;44851;45.648;9.004;2023-05-17T13:17:54;5.13;;;4.30;;
59062;SDS011;44851;45.648;9.004;2023-05-17T13:20:20;4.60;;;4.10;;
59062;SDS011;44851;45.648;9.004;2023-05-17T13:22:46;5.50;;;4.77;;
59062;SDS011;44851;45.648;9.004;2023-05-17T13:25:12;5.10;;;4.60;;
59062;SDS011;44851;45.648;9.004;2023-05-17T13:27:37;4.80;;;3.83;;
59062;SDS011;44851;45.648;9.004;2023-05-17T13:30:03;5.47;;;4.03;;
59062;SDS011;44851;45.648;9.004;2023-05-17T13:32:29;4.53;;;3.63;;
59062;SDS011;44851;45.648;9.004;2023-05-17T13:34:54;4.43;;;3.87;;
59062;SDS011;44851;45.648;9.004;2023-05-17T13:37:20;4.30;;;3.90;;
59062;SDS011;44851;45.648;9.004;2023-05-17T13:39:46;4.63;;;3.80;;
59062;SDS011;44851;45.648;9.004;2023-05-17T13:42:11;7.03;;;3.50;;
59062;SDS011;44851;45.648;9.004;2023-05-17T13:44:37;4.70;;;3.50;;
59062;SDS011;44851;45.648;9.004;2023-05-17T13:47:03;3.90;;;2.70;;
59062;SDS011;44851;45.648;9.004;2023-05-17T13:49:28;4.27;;;3.00;;
59062;SDS011;44851;45.648;9.004;2023-05-17T13:51:54;3.13;;;2.70;;
59062;SDS011;44851;45.648;9.004;2023-05-17T13:54:20;2.23;;;2.13;;
59062;SDS011;44851;45.648;9.004;2023-05-17T13:56:46;7.73;;;3.20;;
59062;SDS011;44851;45.648;9.004;2023-05-17T13:59:11;3.03;;;2.60;;
59062;SDS011;44851;45.648;9.004;2023-05-17T14:01:37;3.00;;;2.67;;
59062;SDS011;44851;45.648;9.004;2023-05-17T14:04:02;3.00;;;2.70;;
59062;SDS011;44851;45.648;9.004;2023-05-17T14:06:28;3.03;;;2.73;;
59062;SDS011;44851;45.648;9.004;2023-05-17T14:08:53;3.53;;;2.50;;
59062;SDS011;44851;45.648;9.004;2023-05-17T14:11:19;2.63;;;2.43;;
59062;SDS011;44851;45.648;9.004;2023-05-17T14:13:45;3.87;;;2.77;;
59062;SDS011;44851;45.648;9.004;2023-05-17T14:16:10;2.63;;;2.37;;
59062;SDS011;44851;45.648;9.004;2023-05-17T14:18:36;2.27;;;2.00;;
59062;SDS011;44851;45.648;9.004;2023-05-17T14:21:01;2.20;;;2.00;;
59062;SDS011;44851;45.648;9.004;2023-05-17T14:23:27;2.17;;;1.97;;
59062;SDS011;44851;45.648;9.004;2023-05-17T14:25:52;2.73;;;1.93;;
59062;SDS011;44851;45.648;9.004;2023-05-17T14:28:18;2.57;;;1.90;;
59062;SDS011;44851;45.648;9.004;2023-05-17T14:30:43;2.60;;;1.93;;
59062;SDS011;44851;45.648;9.004;2023-05-17T14:33:09;2.33;;;2.07;;
59062;SDS011;44851;45.648;9.004;2023-05-17T14:35:35;2.40;;;2.20;;
59062;SDS011;44851;45.648;9.004;2023-05-17T14:38:00;2.53;;;2.20;;
59062;SDS011;44851;45.648;9.004;2023-05-17T14:40:26;2.57;;;2.20;;
59062;SDS011;44851;45.648;9.004;2023-05-17T14:42:51;2.90;;;2.27;;
59062;SDS011;44851;45.648;9.004;2023-05-17T14:45:16;2.47;;;2.27;;